Harbor View, Ohio
Current Conditions -  °F | °C
As of 6:53 PM on Saturday 25 Oct 2014 (Local Time) from KTDZ Reporting Station
Clear Clear  
Wind Chill: 18°   Ceiling: Unl
Heat Index: 18°   Visibility: 10mi
Dew Point: -1°   Wind: 21mph
Humidity: 29%   Direction: 280°W
Pressure: 29.8"   Gusts: 26mph
Location:  41.69°N, 83.44°W
Report Text: KTDZ 252253Z AUTO 28018G23KT 10SM CLR 18/M01 A2980 RMK AO2 SLP091 T01781006 TSNO
Loading
Personal Weather Stations






























Interactive Weather Map
Tropical Storm Tracking
New forecast layout! Learn more

10-Day Weather Forecast

Advertisements
Track Severe Weather on mobile